createdAt,value
2023-03-05T00:02:13.355Z,12.07
2023-03-05T00:04:42.257Z,7.43
2023-03-05T00:07:12.234Z,14.13
2023-03-05T00:09:39.753Z,6.82
2023-03-05T00:12:07.850Z,8.43
2023-03-05T00:14:35.355Z,9.43
2023-03-05T00:17:02.894Z,10.95
2023-03-05T00:19:30.410Z,13.45
2023-03-05T00:21:59.248Z,8.10
2023-03-05T00:24:26.747Z,8.88
2023-03-05T00:26:54.538Z,10.93
2023-03-05T00:29:22.789Z,14.55
2023-03-05T00:31:50.357Z,5.93
2023-03-05T00:34:18.783Z,14.60
2023-03-05T00:36:48.168Z,6.00
2023-03-05T00:39:17.564Z,7.50
2023-03-05T00:41:45.554Z,9.48
2023-03-05T00:44:13.128Z,15.60
2023-03-05T00:46:41.192Z,12.63
2023-03-05T00:49:08.807Z,12.57
2023-03-05T00:51:36.332Z,12.63
2023-03-05T00:54:03.999Z,6.32
2023-03-05T00:56:32.869Z,11.95
2023-03-05T00:59:00.564Z,11.70
2023-03-05T01:01:28.397Z,10.00
2023-03-05T01:03:56.407Z,13.70
2023-03-05T01:06:23.926Z,8.45
2023-03-05T01:08:51.383Z,11.68
2023-03-05T01:11:18.845Z,6.72
2023-03-05T01:13:47.738Z,11.45
2023-03-05T01:16:15.310Z,7.22
2023-03-05T01:18:42.842Z,13.60
2023-03-05T01:21:10.341Z,12.88
2023-03-05T01:23:38.308Z,10.77
2023-03-05T01:26:06.174Z,13.50
2023-03-05T01:28:33.652Z,11.52
2023-03-05T01:31:02.604Z,7.20
2023-03-05T01:33:30.128Z,11.65
2023-03-05T01:35:57.681Z,7.35
2023-03-05T01:38:25.216Z,8.77
2023-03-05T01:40:52.720Z,9.43
2023-03-05T01:43:22.713Z,6.75
2023-03-05T01:46:09.170Z,8.45
2023-03-05T01:48:38.501Z,6.22
2023-03-05T01:51:06.133Z,5.45
2023-03-05T01:53:33.734Z,9.90
2023-03-05T01:56:01.273Z,10.13
2023-03-05T01:58:28.916Z,7.68
2023-03-05T02:00:56.764Z,3.33
2023-03-05T02:03:24.588Z,8.68
2023-03-05T02:05:53.678Z,6.72
2023-03-05T02:08:23.057Z,4.15
2023-03-05T02:10:51.860Z,5.95
2023-03-05T02:13:28.548Z,4.00
2023-03-05T02:15:57.277Z,5.15
2023-03-05T02:18:24.882Z,8.27
2023-03-05T02:20:54.954Z,5.10
2023-03-05T02:23:24.848Z,5.22
2023-03-05T02:25:52.433Z,9.63
2023-03-05T02:28:23.429Z,12.00
2023-03-05T02:30:51.113Z,8.20
2023-03-05T02:33:19.290Z,4.60
2023-03-05T02:35:47.267Z,5.22
2023-03-05T02:38:15.640Z,5.18
2023-03-05T02:40:44.630Z,4.13
2023-03-05T02:43:12.266Z,3.38
2023-03-05T02:45:39.845Z,6.70
2023-03-05T02:48:07.758Z,8.82
2023-03-05T02:50:35.316Z,4.40
2023-03-05T02:53:03.430Z,3.50
2023-03-05T02:55:30.966Z,2.88
2023-03-05T02:57:59.880Z,9.40
2023-03-05T03:00:27.560Z,3.38
2023-03-05T03:02:55.151Z,11.77
2023-03-05T03:05:22.723Z,7.65
2023-03-05T03:07:50.373Z,4.35
2023-03-05T03:10:18.252Z,4.28
2023-03-05T03:12:46.146Z,4.60
2023-03-05T03:15:16.215Z,6.95
2023-03-05T03:17:43.747Z,5.40
2023-03-05T03:20:13.950Z,4.38
2023-03-05T03:22:41.449Z,4.97
2023-03-05T03:25:10.719Z,7.53
2023-03-05T03:27:38.325Z,3.95
2023-03-05T03:30:06.340Z,3.33
2023-03-05T03:32:35.404Z,3.85
2023-03-05T03:35:03.211Z,5.25
2023-03-05T03:37:30.825Z,1.55
2023-03-05T03:39:58.652Z,5.22
2023-03-05T03:42:26.389Z,3.78
2023-03-05T03:44:53.936Z,6.28
2023-03-05T03:47:21.429Z,4.35
2023-03-05T03:49:50.300Z,4.88
2023-03-05T03:52:17.833Z,3.70
2023-03-05T03:54:45.262Z,2.53
2023-03-05T03:57:12.727Z,4.93
2023-03-05T03:59:40.220Z,7.05
2023-03-05T04:02:07.758Z,3.45
2023-03-05T04:04:35.276Z,3.95
2023-03-05T04:07:04.177Z,7.60
2023-03-05T04:09:31.706Z,7.68
2023-03-05T04:11:59.151Z,5.00
2023-03-05T04:14:27.296Z,4.63
2023-03-05T04:16:54.791Z,1.75
2023-03-05T04:19:22.630Z,6.43
2023-03-05T04:21:50.108Z,4.80
2023-03-05T04:24:19.001Z,5.95
2023-03-05T04:26:46.544Z,5.10
2023-03-05T04:29:14.030Z,7.18
2023-03-05T04:31:41.552Z,5.53
2023-03-05T04:34:09.071Z,2.97
2023-03-05T04:36:36.952Z,5.50
2023-03-05T04:39:05.659Z,3.55
2023-03-05T04:41:34.541Z,3.95
2023-03-05T04:44:02.067Z,4.53
2023-03-05T04:46:29.539Z,8.50
2023-03-05T04:48:58.315Z,5.63
2023-03-05T04:51:26.013Z,5.57
2023-03-05T04:53:53.564Z,7.78
2023-03-05T04:56:21.142Z,5.03
2023-03-05T04:58:50.170Z,6.72
2023-03-05T05:01:17.689Z,5.88
2023-03-05T05:03:45.266Z,5.45
2023-03-05T05:06:13.004Z,7.30
2023-03-05T05:08:40.519Z,8.93
2023-03-05T05:11:08.631Z,2.40
2023-03-05T05:13:36.236Z,6.22
2023-03-05T05:16:06.944Z,3.33
2023-03-05T05:18:34.441Z,4.53
2023-03-05T05:21:01.964Z,1.88
2023-03-05T05:23:29.476Z,5.88
2023-03-05T05:25:57.646Z,6.30
2023-03-05T05:28:25.272Z,4.32
2023-03-05T05:30:52.844Z,4.72
2023-03-05T05:33:21.780Z,6.90
2023-03-05T05:35:49.645Z,6.60
2023-03-05T05:38:17.286Z,4.13
2023-03-05T05:40:44.881Z,4.63
2023-03-05T05:43:12.373Z,3.13
2023-03-05T05:45:39.948Z,2.35
2023-03-05T05:48:07.687Z,3.67
2023-03-05T05:50:36.552Z,3.00
2023-03-05T05:53:04.041Z,11.23
2023-03-05T05:55:31.529Z,5.32
2023-03-05T05:57:59.034Z,5.65
2023-03-05T06:00:26.612Z,9.20
2023-03-05T06:02:54.220Z,5.72
2023-03-05T06:05:21.987Z,6.35
2023-03-05T06:07:50.861Z,4.82
2023-03-05T06:10:18.625Z,7.22
2023-03-05T06:12:46.153Z,3.85
2023-03-05T06:15:13.713Z,8.63
2023-03-05T06:17:41.505Z,5.75
2023-03-05T06:20:09.830Z,3.33
2023-03-05T06:22:37.581Z,3.92
2023-03-05T06:25:07.288Z,4.45
2023-03-05T06:27:35.579Z,5.70
2023-03-05T06:30:03.167Z,3.28
2023-03-05T06:32:30.787Z,5.82
2023-03-05T06:34:58.355Z,5.28
2023-03-05T06:37:25.909Z,13.43
2023-03-05T06:39:53.398Z,7.88
2023-03-05T06:42:22.291Z,4.38
2023-03-05T06:44:49.769Z,5.38
2023-03-05T06:47:17.300Z,2.53
2023-03-05T06:49:44.806Z,3.45
2023-03-05T06:52:12.750Z,5.50
2023-03-05T06:54:40.285Z,8.68
2023-03-05T06:57:07.852Z,9.10
2023-03-05T06:59:36.727Z,4.47
2023-03-05T07:02:04.275Z,6.43
2023-03-05T07:04:31.748Z,3.15
2023-03-05T07:07:00.485Z,3.03
2023-03-05T07:09:28.011Z,1.67
2023-03-05T07:11:55.503Z,6.70
2023-03-05T07:14:23.008Z,8.52
2023-03-05T07:16:51.840Z,6.47
2023-03-05T07:19:19.304Z,2.53
2023-03-05T07:21:47.438Z,7.63
2023-03-05T07:24:14.982Z,6.78
2023-03-05T07:26:42.747Z,5.00
2023-03-05T07:29:10.370Z,5.05
2023-03-05T07:31:37.864Z,3.95
2023-03-05T07:34:06.684Z,5.50
2023-03-05T07:36:34.924Z,2.97
2023-03-05T07:39:02.905Z,2.92
2023-03-05T07:41:30.394Z,4.20
2023-03-05T07:43:57.936Z,4.03
2023-03-05T07:46:26.992Z,4.82
2023-03-05T07:48:55.424Z,2.40
2023-03-05T07:51:25.585Z,5.18
2023-03-05T07:53:53.487Z,3.60
2023-03-05T07:56:24.616Z,4.53
2023-03-05T07:58:52.199Z,2.38
2023-03-05T08:01:19.862Z,5.10
2023-03-05T08:03:47.529Z,6.60
2023-03-05T08:06:15.138Z,2.92
2023-03-05T08:08:43.973Z,3.47
2023-03-05T08:11:13.105Z,5.50
2023-03-05T08:13:40.949Z,4.43
2023-03-05T08:16:10.045Z,3.63
2023-03-05T08:18:37.593Z,2.70
2023-03-05T08:21:05.734Z,3.92
2023-03-05T08:23:34.442Z,4.30
2023-03-05T08:26:03.374Z,5.72
2023-03-05T08:28:32.372Z,4.78
2023-03-05T08:31:00.802Z,4.68
2023-03-05T08:33:30.918Z,5.28
2023-03-05T08:35:58.810Z,5.22
2023-03-05T08:38:26.754Z,3.00
2023-03-05T08:40:54.247Z,2.53
2023-03-05T08:43:23.086Z,4.32
2023-03-05T08:45:51.272Z,4.97
2023-03-05T08:48:18.757Z,5.03
2023-03-05T08:50:46.365Z,4.55
2023-03-05T08:53:13.918Z,2.25
2023-03-05T08:55:44.111Z,4.32
2023-03-05T08:58:11.757Z,5.82
2023-03-05T09:00:40.688Z,3.67
2023-03-05T09:03:08.309Z,4.18
2023-03-05T09:05:38.814Z,3.53
2023-03-05T09:08:06.637Z,3.85
2023-03-05T09:10:34.231Z,6.50
2023-03-05T09:13:01.725Z,3.67
2023-03-05T09:15:29.285Z,3.40
2023-03-05T09:17:58.131Z,2.78
2023-03-05T09:20:25.597Z,5.57
2023-03-05T09:22:53.068Z,4.13
2023-03-05T09:25:20.759Z,2.45
2023-03-05T09:27:48.293Z,4.28
2023-03-05T09:30:16.187Z,4.10
2023-03-05T09:32:43.893Z,5.43
2023-03-05T09:35:13.133Z,6.25
2023-03-05T09:37:40.597Z,3.88
2023-03-05T09:40:08.944Z,6.90
2023-03-05T09:42:46.700Z,3.90
2023-03-05T09:45:19.083Z,4.75
2023-03-05T09:47:50.621Z,7.60
2023-03-05T09:50:31.780Z,3.08
2023-03-05T09:53:02.504Z,4.60
2023-03-05T09:55:34.589Z,5.38
2023-03-05T09:58:04.648Z,4.25
2023-03-05T10:00:35.451Z,2.60
2023-03-05T10:03:06.175Z,3.58
2023-03-05T10:05:46.897Z,3.88
2023-03-05T10:08:15.180Z,3.35
2023-03-05T10:10:44.224Z,3.88
2023-03-05T10:13:14.887Z,4.75
2023-03-05T10:15:50.330Z,4.63
2023-03-05T10:18:23.973Z,3.75
2023-03-05T10:21:00.926Z,4.03
2023-03-05T10:23:31.206Z,3.67
2023-03-05T10:26:01.577Z,5.35
2023-03-05T10:28:35.001Z,3.42
2023-03-05T10:31:09.793Z,4.45
2023-03-05T10:33:43.954Z,4.55
2023-03-05T10:36:17.973Z,4.57
2023-03-05T10:38:49.101Z,3.60
2023-03-05T10:41:20.949Z,12.15
2023-03-05T10:43:51.442Z,2.95
2023-03-05T10:46:20.945Z,13.95
2023-03-05T10:48:51.266Z,5.00
2023-03-05T10:51:22.140Z,5.32
2023-03-05T10:53:53.336Z,8.30
2023-03-05T10:56:22.137Z,7.82
2023-03-05T10:58:51.900Z,8.80
2023-03-05T11:01:23.555Z,9.80
2023-03-05T11:03:52.721Z,9.52
2023-03-05T11:06:29.616Z,9.52
2023-03-05T11:08:57.276Z,7.65
2023-03-05T11:11:24.991Z,7.35
2023-03-05T11:13:54.529Z,4.70
2023-03-05T11:16:23.056Z,9.73
2023-03-05T11:18:50.854Z,5.75
2023-03-05T11:21:27.479Z,7.72
2023-03-05T11:24:06.510Z,5.72
2023-03-05T11:26:34.603Z,3.03
2023-03-05T11:29:03.259Z,11.07
2023-03-05T11:31:31.597Z,12.38
2023-03-05T11:34:00.819Z,5.32
2023-03-05T11:36:29.665Z,5.82
2023-03-05T11:38:59.486Z,6.13
2023-03-05T11:41:33.617Z,8.18
2023-03-05T11:44:03.738Z,7.85
2023-03-05T11:46:34.771Z,5.78
2023-03-05T11:49:03.341Z,4.47
2023-03-05T11:51:34.747Z,7.22
2023-03-05T11:54:06.780Z,3.92
2023-03-05T11:56:37.100Z,4.15
2023-03-05T11:59:06.328Z,4.38
2023-03-05T12:01:36.089Z,2.00
2023-03-05T12:04:04.972Z,4.93
2023-03-05T12:06:35.278Z,5.97
2023-03-05T12:09:04.785Z,4.32
2023-03-05T12:11:33.363Z,4.00
2023-03-05T12:14:05.651Z,2.20
2023-03-05T12:16:36.034Z,2.42
2023-03-05T12:19:11.538Z,2.15
2023-03-05T12:21:41.185Z,5.65
2023-03-05T12:24:25.488Z,5.80
2023-03-05T12:26:57.810Z,5.13
2023-03-05T12:29:30.588Z,4.18
2023-03-05T12:31:58.419Z,6.35
2023-03-05T12:34:53.162Z,2.85
2023-03-05T12:37:39.414Z,4.75
2023-03-05T12:40:20.330Z,3.03
2023-03-05T12:42:52.485Z,3.55
2023-03-05T12:45:31.577Z,3.75
2023-03-05T12:48:17.578Z,5.32
2023-03-05T12:50:48.960Z,4.22
2023-03-05T12:55:49.906Z,3.80
2023-03-05T12:58:20.305Z,3.28
2023-03-05T13:00:50.772Z,3.75
2023-03-05T13:03:19.152Z,3.25
2023-03-05T13:05:50.818Z,4.38
2023-03-05T13:08:21.552Z,5.07
2023-03-05T13:10:53.064Z,2.95
2023-03-05T13:13:21.618Z,8.20
2023-03-05T13:15:51.420Z,6.22
2023-03-05T13:18:20.539Z,6.03
2023-03-05T13:20:52.028Z,2.05
2023-03-05T13:23:21.609Z,7.35
2023-03-05T13:26:00.033Z,3.50
2023-03-05T13:28:28.049Z,6.38
2023-03-05T13:30:58.261Z,3.63
2023-03-05T13:33:29.503Z,4.20
2023-03-05T13:35:57.221Z,2.50
2023-03-05T13:38:26.357Z,3.40
2023-03-05T13:41:04.961Z,3.30
2023-03-05T13:43:32.700Z,5.07
2023-03-05T13:46:01.634Z,3.83
2023-03-05T13:48:29.174Z,6.55
2023-03-05T13:50:57.475Z,5.22
2023-03-05T13:53:25.618Z,3.70
2023-03-05T13:55:54.424Z,6.30
2023-03-05T13:58:40.588Z,2.95
2023-03-05T14:01:13.733Z,6.03
2023-03-05T14:03:41.396Z,5.20
2023-03-05T14:06:10.557Z,3.55
2023-03-05T14:08:38.398Z,3.58
2023-03-05T14:11:15.849Z,3.65
2023-03-05T14:13:44.021Z,4.15
2023-03-05T14:16:14.916Z,5.57
2023-03-05T14:18:53.535Z,2.88
2023-03-05T14:21:21.099Z,3.70
2023-03-05T14:23:49.317Z,5.05
2023-03-05T14:26:29.314Z,4.70
2023-03-05T14:28:58.137Z,3.42
2023-03-05T14:31:27.405Z,6.68
2023-03-05T14:33:55.747Z,5.72
2023-03-05T14:36:27.339Z,4.38
2023-03-05T14:38:54.901Z,5.15
2023-03-05T14:41:23.582Z,2.53
2023-03-05T14:43:51.076Z,2.65
2023-03-05T14:46:18.639Z,3.15
2023-03-05T14:48:47.943Z,4.95
2023-03-05T14:51:15.486Z,5.43
2023-03-05T14:53:47.270Z,3.80
2023-03-05T14:56:18.149Z,2.50
2023-03-05T14:58:45.687Z,3.58
2023-03-05T15:01:13.565Z,5.18
2023-03-05T15:03:41.583Z,3.42
2023-03-05T15:06:17.002Z,3.28
2023-03-05T15:08:44.531Z,5.18
2023-03-05T15:11:12.016Z,3.95
2023-03-05T15:13:39.663Z,3.95
2023-03-05T15:16:07.917Z,5.65
2023-03-05T15:18:35.701Z,5.05
2023-03-05T15:21:03.383Z,3.13
2023-03-05T15:23:36.535Z,3.58
2023-03-05T15:26:06.272Z,2.78
2023-03-05T15:28:35.082Z,3.63
2023-03-05T15:31:03.458Z,4.63
2023-03-05T15:33:31.589Z,3.28
2023-03-05T15:35:59.189Z,4.30
2023-03-05T15:38:27.125Z,4.32
2023-03-05T15:40:56.071Z,5.57
2023-03-05T15:43:23.584Z,2.75
2023-03-05T15:45:51.143Z,3.38
2023-03-05T15:48:18.638Z,3.53
2023-03-05T15:50:46.128Z,5.85
2023-03-05T15:53:15.623Z,5.60
2023-03-05T15:55:44.390Z,4.28
2023-03-05T15:58:15.340Z,3.25
2023-03-05T16:00:42.889Z,4.68
2023-03-05T16:03:10.411Z,5.03
2023-03-05T16:05:38.721Z,8.05
2023-03-05T16:08:06.712Z,3.67
2023-03-05T16:10:35.613Z,2.55
2023-03-05T16:13:04.662Z,2.78
2023-03-05T16:15:35.011Z,2.67
2023-03-05T16:18:03.523Z,2.70
2023-03-05T16:20:31.132Z,3.53
2023-03-05T16:22:58.655Z,3.17
2023-03-05T16:25:26.721Z,4.97
2023-03-05T16:27:54.226Z,5.18
2023-03-05T16:30:22.116Z,3.97
2023-03-05T16:32:53.521Z,4.45
2023-03-05T16:35:21.309Z,4.32
2023-03-05T16:37:48.909Z,5.88
2023-03-05T16:40:16.656Z,7.43
2023-03-05T16:42:44.172Z,3.40
2023-03-05T16:45:12.436Z,3.92
2023-03-05T16:47:40.047Z,9.10
2023-03-05T16:50:10.398Z,6.38
2023-03-05T16:52:38.091Z,3.22
2023-03-05T16:55:06.033Z,3.33
2023-03-05T16:57:33.481Z,3.17
2023-03-05T17:00:03.988Z,5.15
2023-03-05T17:02:31.537Z,7.40
2023-03-05T17:04:59.055Z,3.63
2023-03-05T17:07:28.288Z,3.22
2023-03-05T17:09:55.814Z,2.78
2023-03-05T17:12:23.536Z,3.80
2023-03-05T17:14:51.028Z,4.18
2023-03-05T17:17:18.495Z,4.05
2023-03-05T17:19:46.339Z,4.88
2023-03-05T17:22:16.015Z,5.82
2023-03-05T17:24:47.101Z,2.92
2023-03-05T17:27:18.529Z,4.80
2023-03-05T17:29:46.030Z,3.55
2023-03-05T17:32:13.606Z,5.57
2023-03-05T17:34:41.361Z,3.63
2023-03-05T17:37:08.848Z,2.08
2023-03-05T17:39:36.357Z,3.65
2023-03-05T17:42:05.237Z,3.40
2023-03-05T17:44:32.736Z,8.30
2023-03-05T17:47:00.187Z,3.70
2023-03-05T17:49:27.694Z,3.10
2023-03-05T17:51:55.177Z,3.92
2023-03-05T17:54:23.076Z,5.03
2023-03-05T17:56:50.584Z,3.20
2023-03-05T17:59:19.457Z,4.97
2023-03-05T18:01:47.055Z,3.83
2023-03-05T18:04:15.188Z,4.28
2023-03-05T18:06:42.756Z,4.45
2023-03-05T18:09:10.446Z,4.25
2023-03-05T18:11:37.968Z,4.82
2023-03-05T18:14:05.473Z,5.50
2023-03-05T18:16:35.343Z,4.65
2023-03-05T18:19:02.883Z,4.45
2023-03-05T18:21:31.520Z,5.78
2023-03-05T18:23:59.004Z,3.95
2023-03-05T18:26:26.480Z,5.95
2023-03-05T18:28:54.029Z,5.72
2023-03-05T18:31:21.498Z,5.20
2023-03-05T18:33:50.948Z,7.05
2023-03-05T18:36:18.444Z,6.28
2023-03-05T18:38:46.031Z,8.63
2023-03-05T18:41:18.935Z,4.55
2023-03-05T18:43:46.861Z,8.18
2023-03-05T18:46:14.377Z,5.15
2023-03-05T18:48:41.858Z,4.82
2023-03-05T18:51:13.715Z,4.22
2023-03-05T18:53:41.237Z,8.02
2023-03-05T18:56:09.226Z,8.40
2023-03-05T18:58:36.756Z,6.18
2023-03-05T19:01:04.321Z,8.13
2023-03-05T19:03:32.076Z,5.78
2023-03-05T19:05:59.655Z,6.57
2023-03-05T19:08:28.608Z,8.05
2023-03-05T19:10:56.150Z,6.85
2023-03-05T19:13:35.294Z,8.05
2023-03-05T19:16:07.070Z,7.25
2023-03-05T19:18:39.586Z,7.75
2023-03-05T19:21:08.248Z,7.70
2023-03-05T19:23:37.102Z,8.23
2023-03-05T19:26:05.072Z,7.63
2023-03-05T19:28:32.574Z,6.63
2023-03-05T19:31:00.187Z,10.55
2023-03-05T19:33:27.793Z,6.53
2023-03-05T19:35:55.336Z,7.65
2023-03-05T19:38:22.886Z,10.38
2023-03-05T19:40:51.781Z,9.20
2023-03-05T19:43:19.300Z,6.18
2023-03-05T19:45:46.981Z,7.68
2023-03-05T19:48:15.427Z,6.70
2023-03-05T19:50:42.891Z,9.05
2023-03-05T19:53:10.400Z,8.23
2023-03-05T19:55:39.920Z,9.38
2023-03-05T19:58:08.792Z,7.22
2023-03-05T20:00:37.443Z,6.80
2023-03-05T20:03:04.944Z,6.43
2023-03-05T20:05:32.522Z,7.88
2023-03-05T20:08:00.008Z,10.07
2023-03-05T20:10:27.487Z,5.03
2023-03-05T20:12:55.149Z,6.70
2023-03-05T20:15:29.118Z,10.15
2023-03-05T20:17:56.837Z,9.20
2023-03-05T20:20:24.915Z,7.97
2023-03-05T20:22:52.473Z,8.30
2023-03-05T20:25:24.698Z,7.47
2023-03-05T20:27:52.575Z,6.15
2023-03-05T20:30:20.251Z,7.60
2023-03-05T20:32:49.086Z,7.55
2023-03-05T20:35:18.000Z,8.02
2023-03-05T20:38:00.178Z,8.25
2023-03-05T20:40:27.889Z,8.75
2023-03-05T20:42:55.386Z,8.70
2023-03-05T20:45:22.960Z,6.57
2023-03-05T20:47:51.875Z,9.80
2023-03-05T20:50:19.886Z,6.80
2023-03-05T20:52:47.457Z,7.20
2023-03-05T20:55:15.080Z,7.65
2023-03-05T20:57:44.108Z,7.50
2023-03-05T21:00:12.352Z,8.93
2023-03-05T21:02:40.127Z,7.75
2023-03-05T21:05:09.479Z,7.30
2023-03-05T21:07:37.030Z,6.75
2023-03-05T21:10:04.910Z,7.93
2023-03-05T21:12:32.873Z,7.00
2023-03-05T21:15:00.730Z,7.30
2023-03-05T21:17:28.261Z,9.65
2023-03-05T21:19:55.784Z,8.48
2023-03-05T21:22:24.701Z,5.70
2023-03-05T21:25:01.973Z,8.68
2023-03-05T21:27:29.505Z,7.30
2023-03-05T21:29:56.980Z,8.45
2023-03-05T21:32:24.648Z,5.93
2023-03-05T21:34:52.144Z,6.15
2023-03-05T21:37:19.641Z,6.15
2023-03-05T21:39:48.541Z,8.15
2023-03-05T21:42:16.041Z,6.82
2023-03-05T21:44:43.560Z,8.82
2023-03-05T21:47:11.125Z,6.95
2023-03-05T21:49:38.696Z,9.15
2023-03-05T21:52:09.429Z,8.38
2023-03-05T21:54:37.057Z,11.55
2023-03-05T21:57:06.592Z,10.43
2023-03-05T21:59:34.106Z,11.70
2023-03-05T22:02:01.569Z,12.38
2023-03-05T22:04:29.093Z,13.95
2023-03-05T22:06:57.153Z,14.82
2023-03-05T22:09:24.645Z,8.82
2023-03-05T22:11:52.418Z,8.48
2023-03-05T22:14:21.271Z,21.92
2023-03-05T22:16:51.885Z,29.42
2023-03-05T22:19:19.486Z,14.38
2023-03-05T22:21:46.933Z,11.82
2023-03-05T22:24:14.492Z,14.07
2023-03-05T22:26:42.418Z,19.42
2023-03-05T22:29:11.592Z,16.10
2023-03-05T22:31:40.714Z,13.77
2023-03-05T22:34:08.244Z,8.55
2023-03-05T22:36:35.728Z,9.60
2023-03-05T22:39:03.271Z,12.65
2023-03-05T22:41:30.934Z,9.23
2023-03-05T22:43:58.418Z,9.88
2023-03-05T22:46:27.035Z,24.77
2023-03-05T22:48:55.883Z,26.35
2023-03-05T22:51:23.442Z,17.10
2023-03-05T22:53:50.908Z,9.95
2023-03-05T22:56:19.289Z,21.17
2023-03-05T22:58:47.108Z,26.40
2023-03-05T23:01:15.215Z,18.08
2023-03-05T23:03:43.286Z,24.33
2023-03-05T23:06:12.374Z,20.85
2023-03-05T23:08:39.844Z,13.23
2023-03-05T23:11:10.614Z,16.30
2023-03-05T23:13:38.157Z,13.15
2023-03-05T23:16:06.082Z,10.52
2023-03-05T23:18:33.637Z,12.05
2023-03-05T23:21:01.088Z,13.23
2023-03-05T23:23:29.907Z,12.75
2023-03-05T23:25:57.411Z,16.30
2023-03-05T23:28:24.895Z,17.27
2023-03-05T23:30:52.401Z,10.00
2023-03-05T23:33:20.704Z,11.10
2023-03-05T23:35:51.751Z,10.18
2023-03-05T23:38:19.722Z,11.05
2023-03-05T23:40:49.094Z,9.50
2023-03-05T23:43:17.349Z,12.30
2023-03-05T23:45:45.442Z,10.45
2023-03-05T23:48:12.937Z,9.43
2023-03-05T23:50:41.713Z,10.50
2023-03-05T23:53:09.352Z,7.80
2023-03-05T23:55:37.732Z,11.85
2023-03-05T23:58:06.586Z,9.57
